createdAt,value
2019-02-23T00:01:00.170Z,10.37
2019-02-23T00:03:41.142Z,11.12
2019-02-23T00:06:29.427Z,9.60
2019-02-23T00:09:05.027Z,11.03
2019-02-23T00:11:46.051Z,11.07
2019-02-23T00:14:26.530Z,10.40
2019-02-23T00:17:07.820Z,10.03
2019-02-23T00:19:48.297Z,11.00
2019-02-23T00:22:29.075Z,11.50
2019-02-23T00:25:09.795Z,9.70
2019-02-23T00:27:50.494Z,9.67
2019-02-23T00:30:30.951Z,9.57
2019-02-23T00:33:11.810Z,9.20
2019-02-23T00:35:52.870Z,11.00
2019-02-23T00:38:33.227Z,11.07
2019-02-23T00:41:14.229Z,12.28
2019-02-23T00:43:55.091Z,10.83
2019-02-23T00:46:35.867Z,9.67
2019-02-23T00:49:16.561Z,10.33
2019-02-23T00:51:56.939Z,11.10
2019-02-23T00:54:37.655Z,10.58
2019-02-23T00:57:18.505Z,10.50
2019-02-23T00:59:59.649Z,10.20
2019-02-23T01:02:40.365Z,10.70
2019-02-23T01:05:21.639Z,9.00
2019-02-23T01:08:01.958Z,9.83
2019-02-23T01:10:42.741Z,9.03
2019-02-23T01:13:23.671Z,9.83
2019-02-23T01:16:04.322Z,9.30
2019-02-23T01:18:45.265Z,9.40
2019-02-23T01:21:26.606Z,9.73
2019-02-23T01:24:06.993Z,10.07
2019-02-23T01:26:47.710Z,10.68
2019-02-23T01:29:28.685Z,11.40
2019-02-23T01:32:09.354Z,9.80
2019-02-23T01:34:49.850Z,11.20
2019-02-23T01:37:31.125Z,10.40
2019-02-23T01:40:12.587Z,10.00
2019-02-23T01:42:53.251Z,11.05
2019-02-23T01:45:42.049Z,10.93
2019-02-23T01:48:16.254Z,10.83
2019-02-23T01:50:57.503Z,9.90
2019-02-23T01:53:38.017Z,9.60
2019-02-23T01:56:18.812Z,9.83
2019-02-23T01:58:59.342Z,10.00
2019-02-23T02:01:40.345Z,9.90
2019-02-23T02:04:21.288Z,10.10
2019-02-23T02:07:01.778Z,10.32
2019-02-23T02:09:42.694Z,10.38
2019-02-23T02:12:24.392Z,9.33
2019-02-23T02:15:04.765Z,9.10
2019-02-23T02:17:45.298Z,11.43
2019-02-23T02:20:26.029Z,10.30
2019-02-23T02:23:07.033Z,11.05
2019-02-23T02:25:47.686Z,11.30
2019-02-23T02:28:29.091Z,11.08
2019-02-23T02:31:09.866Z,10.57
2019-02-23T02:33:50.453Z,11.48
2019-02-23T02:36:31.718Z,10.85
2019-02-23T02:39:12.659Z,13.45
2019-02-23T02:41:53.087Z,10.98
2019-02-23T02:44:33.668Z,11.90
2019-02-23T02:47:14.149Z,11.30
2019-02-23T02:49:54.819Z,10.30
2019-02-23T02:52:35.538Z,11.63
2019-02-23T02:55:16.323Z,10.78
2019-02-23T02:57:56.851Z,11.43
2019-02-23T03:00:37.595Z,10.88
2019-02-23T03:03:18.376Z,12.25
2019-02-23T03:05:59.194Z,10.80
2019-02-23T03:08:39.862Z,10.98
2019-02-23T03:11:20.460Z,10.77
2019-02-23T03:14:01.166Z,9.85
2019-02-23T03:16:42.029Z,10.80
2019-02-23T03:19:22.621Z,10.48
2019-02-23T03:22:03.494Z,10.05
2019-02-23T03:24:44.646Z,11.00
2019-02-23T03:27:25.269Z,10.17
2019-02-23T03:30:06.030Z,10.33
2019-02-23T03:32:47.020Z,11.20
2019-02-23T03:35:27.870Z,10.77
2019-02-23T03:38:08.431Z,10.63
2019-02-23T03:40:49.079Z,10.43
2019-02-23T03:43:29.854Z,11.10
2019-02-23T03:46:10.594Z,11.80
2019-02-23T03:48:51.062Z,11.12
2019-02-23T03:51:31.845Z,10.47
2019-02-23T03:54:12.631Z,12.78
2019-02-23T03:56:53.489Z,12.70
2019-02-23T03:59:34.517Z,10.43
2019-02-23T04:02:15.166Z,10.73
2019-02-23T04:04:56.094Z,11.83
2019-02-23T04:07:37.155Z,11.48
2019-02-23T04:10:17.831Z,11.28
2019-02-23T04:12:58.313Z,9.53
2019-02-23T04:15:39.323Z,10.40
2019-02-23T04:18:19.994Z,11.37
2019-02-23T04:21:02.072Z,11.03
2019-02-23T04:23:43.575Z,11.12
2019-02-23T04:26:24.644Z,10.47
2019-02-23T04:29:05.261Z,10.37
2019-02-23T04:31:45.847Z,10.10
2019-02-23T04:34:26.625Z,12.30
2019-02-23T04:37:07.334Z,12.18
2019-02-23T04:39:47.934Z,12.60
2019-02-23T04:42:28.731Z,13.22
2019-02-23T04:45:09.357Z,14.68
2019-02-23T04:47:49.870Z,12.75
2019-02-23T04:50:31.166Z,14.68
2019-02-23T04:53:11.740Z,14.07
2019-02-23T04:55:52.591Z,14.58
2019-02-23T04:58:33.286Z,16.32
2019-02-23T05:01:14.127Z,15.50
2019-02-23T05:03:54.946Z,14.43
2019-02-23T05:06:35.479Z,14.30
2019-02-23T05:09:16.285Z,12.75
2019-02-23T05:11:57.364Z,12.88
2019-02-23T05:14:38.187Z,13.28
2019-02-23T05:17:18.739Z,12.50
2019-02-23T05:19:59.637Z,13.50
2019-02-23T05:22:40.446Z,13.38
2019-02-23T05:25:21.131Z,13.13
2019-02-23T05:28:01.891Z,13.83
2019-02-23T05:30:42.716Z,13.03
2019-02-23T05:33:23.632Z,12.77
2019-02-23T05:36:04.652Z,13.93
2019-02-23T05:38:46.095Z,13.70
2019-02-23T05:41:26.886Z,12.55
2019-02-23T05:44:07.267Z,13.60
2019-02-23T05:46:48.370Z,13.72
2019-02-23T05:49:28.847Z,15.50
2019-02-23T05:52:09.874Z,14.87
2019-02-23T05:54:50.970Z,14.58
2019-02-23T05:57:31.493Z,14.65
2019-02-23T06:00:12.228Z,13.70
2019-02-23T06:02:52.953Z,13.60
2019-02-23T06:05:33.590Z,12.80
2019-02-23T06:08:14.623Z,13.70
2019-02-23T06:10:55.308Z,14.70
2019-02-23T06:13:35.712Z,14.03
2019-02-23T06:16:17.044Z,14.13
2019-02-23T06:18:58.188Z,14.60
2019-02-23T06:21:52.337Z,15.48
2019-02-23T06:24:21.734Z,14.78
2019-02-23T06:27:04.142Z,14.60
2019-02-23T06:29:45.286Z,15.65
2019-02-23T06:32:26.056Z,14.55
2019-02-23T06:35:06.973Z,14.55
2019-02-23T06:37:47.966Z,14.98
2019-02-23T06:40:28.613Z,14.95
2019-02-23T06:43:09.123Z,15.23
2019-02-23T06:45:49.598Z,14.80
2019-02-23T06:48:30.527Z,15.90
2019-02-23T06:51:11.166Z,16.50
2019-02-23T06:53:52.075Z,16.30
2019-02-23T06:56:32.620Z,16.62
2019-02-23T06:59:13.404Z,13.58
2019-02-23T07:01:56.542Z,15.78
2019-02-23T07:04:36.815Z,16.12
2019-02-23T07:07:17.680Z,17.20
2019-02-23T07:09:58.302Z,16.67
2019-02-23T07:12:39.422Z,16.05
2019-02-23T07:15:20.092Z,15.78
2019-02-23T07:18:00.633Z,17.45
2019-02-23T07:20:44.519Z,16.37
2019-02-23T07:23:23.918Z,17.65
2019-02-23T07:26:04.354Z,14.83
2019-02-23T07:28:45.247Z,17.02
2019-02-23T07:31:25.934Z,17.90
2019-02-23T07:34:06.531Z,18.02
2019-02-23T07:36:47.503Z,16.90
2019-02-23T07:39:28.343Z,15.90
2019-02-23T07:42:09.513Z,17.45
2019-02-23T07:44:50.001Z,18.47
2019-02-23T07:47:30.875Z,17.37
2019-02-23T07:50:11.485Z,19.10
2019-02-23T07:52:52.174Z,18.20
2019-02-23T07:55:32.839Z,17.20
2019-02-23T07:58:13.637Z,19.12
2019-02-23T08:00:54.171Z,18.53
2019-02-23T08:03:35.316Z,18.37
2019-02-23T08:06:15.790Z,17.10
2019-02-23T08:08:56.509Z,17.53
2019-02-23T08:11:37.307Z,16.67
2019-02-23T08:14:17.879Z,16.07
2019-02-23T08:16:58.823Z,17.67
2019-02-23T08:19:39.451Z,17.70
2019-02-23T08:22:20.035Z,17.03
2019-02-23T08:25:00.842Z,17.50
2019-02-23T08:27:41.547Z,18.00
2019-02-23T08:30:22.734Z,19.80
2019-02-23T08:33:03.133Z,17.50
2019-02-23T08:35:43.781Z,17.50
2019-02-23T08:38:24.671Z,17.40
2019-02-23T08:41:05.453Z,16.07
2019-02-23T08:43:46.214Z,16.20
2019-02-23T08:46:26.916Z,15.80
2019-02-23T08:51:32.369Z,13.33
2019-02-23T08:54:12.986Z,13.47
2019-02-23T08:56:55.383Z,14.37
2019-02-23T08:59:36.324Z,13.60
2019-02-23T09:02:16.706Z,14.17
2019-02-23T09:04:57.335Z,12.90
2019-02-23T09:07:38.295Z,14.10
2019-02-23T09:10:18.932Z,13.43
2019-02-23T09:12:59.502Z,13.73
2019-02-23T09:15:40.281Z,12.73
2019-02-23T09:18:21.558Z,12.30
2019-02-23T09:21:02.807Z,13.10
2019-02-23T09:23:43.623Z,14.63
2019-02-23T09:26:24.225Z,13.27
2019-02-23T09:29:05.187Z,13.80
2019-02-23T09:31:45.858Z,12.73
2019-02-23T09:34:26.467Z,13.73
2019-02-23T09:37:07.841Z,13.53
2019-02-23T09:39:48.236Z,12.77
2019-02-23T09:42:29.026Z,13.43
2019-02-23T09:45:09.726Z,13.60
2019-02-23T09:47:51.058Z,14.27
2019-02-23T09:50:31.638Z,14.30
2019-02-23T09:53:12.342Z,14.37
2019-02-23T09:55:53.027Z,13.30
2019-02-23T09:58:33.799Z,15.20
2019-02-23T10:01:14.898Z,14.23
2019-02-23T10:03:55.878Z,14.67
2019-02-23T10:06:36.974Z,15.70
2019-02-23T10:09:17.930Z,14.80
2019-02-23T10:11:58.629Z,17.10
2019-02-23T10:14:39.047Z,16.73
2019-02-23T10:17:20.044Z,17.10
2019-02-23T10:20:00.751Z,16.10
2019-02-23T10:22:41.509Z,16.00
2019-02-23T10:25:22.515Z,16.00
2019-02-23T10:28:03.238Z,15.60
2019-02-23T10:30:44.042Z,17.93
2019-02-23T10:33:24.875Z,14.87
2019-02-23T10:36:05.262Z,13.03
2019-02-23T10:38:45.685Z,15.77
2019-02-23T10:41:26.587Z,13.57
2019-02-23T10:44:07.305Z,14.87
2019-02-23T10:46:48.579Z,12.37
2019-02-23T10:49:29.460Z,15.87
2019-02-23T10:52:10.362Z,12.87
2019-02-23T10:54:51.026Z,14.20
2019-02-23T10:57:32.002Z,14.47
2019-02-23T11:00:18.742Z,13.40
2019-02-23T11:02:59.499Z,12.87
2019-02-23T11:05:40.742Z,12.20
2019-02-23T11:08:21.046Z,12.30
2019-02-23T11:11:01.822Z,12.60
2019-02-23T11:13:42.603Z,13.47
2019-02-23T11:16:23.033Z,12.10
2019-02-23T11:19:03.870Z,12.13
2019-02-23T11:21:44.712Z,12.17
2019-02-23T11:24:25.838Z,10.77
2019-02-23T11:27:06.612Z,12.60
2019-02-23T11:29:47.586Z,13.03
2019-02-23T11:32:28.275Z,14.03
2019-02-23T11:35:09.148Z,15.50
2019-02-23T11:37:50.107Z,12.80
2019-02-23T11:40:30.891Z,13.50
2019-02-23T11:43:11.860Z,13.77
2019-02-23T11:45:52.616Z,13.07
2019-02-23T11:48:33.511Z,14.47
2019-02-23T11:51:13.884Z,13.67
2019-02-23T11:53:55.373Z,13.10
2019-02-23T11:56:36.186Z,13.67
2019-02-23T11:59:17.187Z,14.00
2019-02-23T12:01:57.642Z,13.83
2019-02-23T12:04:38.335Z,14.27
2019-02-23T12:07:19.943Z,14.87
2019-02-23T12:10:00.907Z,13.83
2019-02-23T12:12:42.071Z,13.37
2019-02-23T12:15:22.513Z,13.03
2019-02-23T12:18:02.985Z,13.20
2019-02-23T12:20:43.808Z,12.77
2019-02-23T12:23:24.925Z,13.40
2019-02-23T12:26:05.599Z,14.60
2019-02-23T12:28:46.046Z,12.47
2019-02-23T12:31:28.071Z,14.73
2019-02-23T12:34:09.303Z,15.13
2019-02-23T12:36:50.055Z,14.23
2019-02-23T12:39:31.490Z,13.57
2019-02-23T12:42:12.575Z,13.90
2019-02-23T12:44:53.346Z,15.63
2019-02-23T12:47:34.438Z,15.00
2019-02-23T12:50:15.558Z,13.80
2019-02-23T12:52:55.979Z,16.30
2019-02-23T12:55:35.148Z,15.03
2019-02-23T12:58:23.558Z,14.83
2019-02-23T13:01:12.194Z,14.03
2019-02-23T13:04:00.205Z,15.33
2019-02-23T13:06:48.226Z,14.93
2019-02-23T13:09:38.065Z,16.20
2019-02-23T13:12:45.284Z,15.00
2019-02-23T13:15:52.547Z,14.57
2019-02-23T13:19:00.115Z,16.23
2019-02-23T13:22:07.345Z,15.53
2019-02-23T13:25:14.575Z,14.67
2019-02-23T13:27:55.871Z,13.77
2019-02-23T13:30:36.762Z,14.20
2019-02-23T13:33:17.462Z,15.77
2019-02-23T13:35:58.104Z,15.33
2019-02-23T13:38:38.659Z,15.60
2019-02-23T13:41:19.262Z,15.00
2019-02-23T13:43:59.695Z,15.43
2019-02-23T13:46:40.408Z,15.43
2019-02-23T13:49:20.992Z,16.03
2019-02-23T13:52:01.765Z,14.67
2019-02-23T13:54:42.345Z,14.60
2019-02-23T13:57:23.193Z,16.20
2019-02-23T14:00:03.880Z,13.70
2019-02-23T14:02:45.239Z,14.13
2019-02-23T14:05:26.522Z,15.93
2019-02-23T14:08:07.379Z,14.70
2019-02-23T14:10:47.977Z,15.13
2019-02-23T14:13:28.481Z,15.07
2019-02-23T14:16:09.603Z,15.63
2019-02-23T14:18:50.186Z,14.90
2019-02-23T14:21:30.654Z,15.10
2019-02-23T14:24:11.616Z,14.67
2019-02-23T14:26:52.356Z,15.00
2019-02-23T14:29:33.860Z,16.17
2019-02-23T14:32:14.395Z,15.37
2019-02-23T14:34:55.345Z,14.37
2019-02-23T14:37:35.938Z,14.20
2019-02-23T14:40:16.952Z,13.90
2019-02-23T14:42:57.983Z,14.70
2019-02-23T14:45:38.897Z,15.30
2019-02-23T14:48:19.701Z,15.20
2019-02-23T14:51:00.532Z,16.70
2019-02-23T14:53:41.214Z,15.37
2019-02-23T14:56:22.246Z,16.17
2019-02-23T14:59:03.125Z,14.50
2019-02-23T15:01:43.630Z,15.17
2019-02-23T15:04:24.155Z,14.30
2019-02-23T15:07:04.970Z,14.60
2019-02-23T15:09:45.344Z,14.73
2019-02-23T15:12:25.970Z,15.13
2019-02-23T15:15:06.953Z,16.30
2019-02-23T15:17:47.399Z,15.07
2019-02-23T15:20:28.146Z,15.60
2019-02-23T15:23:08.906Z,16.20
2019-02-23T15:25:49.637Z,14.90
2019-02-23T15:28:37.948Z,15.87
2019-02-23T15:31:13.525Z,15.67
2019-02-23T15:33:54.586Z,16.40
2019-02-23T15:36:35.795Z,17.67
2019-02-23T15:39:16.134Z,16.77
2019-02-23T15:41:56.934Z,15.07
2019-02-23T15:44:37.611Z,15.87
2019-02-23T15:47:18.467Z,15.97
2019-02-23T15:50:12.247Z,16.67
2019-02-23T15:52:42.246Z,15.50
2019-02-23T15:55:25.948Z,16.07
2019-02-23T15:58:07.791Z,17.60
2019-02-23T16:00:49.423Z,15.30
2019-02-23T16:03:29.913Z,16.87
2019-02-23T16:06:11.198Z,16.67
2019-02-23T16:08:52.331Z,16.63
2019-02-23T16:11:33.183Z,16.00
2019-02-23T16:14:14.244Z,15.70
2019-02-23T16:16:55.032Z,17.70
2019-02-23T16:19:36.020Z,16.70
2019-02-23T16:22:18.695Z,16.73
2019-02-23T16:24:59.347Z,17.17
2019-02-23T16:27:40.366Z,19.80
2019-02-23T16:30:21.074Z,17.67
2019-02-23T16:33:02.478Z,19.50
2019-02-23T16:35:43.614Z,17.10
2019-02-23T16:38:24.455Z,19.93
2019-02-23T16:41:05.742Z,18.13
2019-02-23T16:43:46.414Z,18.13
2019-02-23T16:46:27.277Z,19.03
2019-02-23T16:49:08.480Z,17.57
2019-02-23T16:51:49.134Z,18.17
2019-02-23T16:54:30.765Z,18.73
2019-02-23T16:57:12.311Z,20.20
2019-02-23T16:59:53.627Z,18.90
2019-02-23T17:02:36.101Z,19.30
2019-02-23T17:05:16.671Z,19.63
2019-02-23T17:07:57.696Z,19.07
2019-02-23T17:10:38.538Z,20.40
2019-02-23T17:13:19.802Z,18.90
2019-02-23T17:16:00.875Z,20.40
2019-02-23T17:18:42.157Z,17.60
2019-02-23T17:21:22.995Z,20.20
2019-02-23T17:24:03.671Z,19.23
2019-02-23T17:26:44.484Z,18.30
2019-02-23T17:29:25.930Z,17.13
2019-02-23T17:32:06.528Z,17.47
2019-02-23T17:34:46.983Z,17.17
2019-02-23T17:37:28.167Z,17.40
2019-02-23T17:40:08.938Z,18.40
2019-02-23T17:42:49.613Z,16.80
2019-02-23T17:45:30.275Z,28.60
2019-02-23T17:48:11.455Z,20.63
2019-02-23T17:50:52.441Z,16.50
2019-02-23T17:53:33.391Z,18.77
2019-02-23T17:56:14.688Z,18.00
2019-02-23T17:58:55.768Z,18.90
2019-02-23T18:01:36.606Z,17.70
2019-02-23T18:04:17.998Z,17.90
2019-02-23T18:06:59.087Z,17.93
2019-02-23T18:09:40.052Z,17.20
2019-02-23T18:12:21.126Z,17.07
2019-02-23T18:15:02.473Z,16.80
2019-02-23T18:17:43.619Z,18.40
2019-02-23T18:20:24.406Z,18.63
2019-02-23T18:23:05.525Z,20.30
2019-02-23T18:25:46.508Z,17.70
2019-02-23T18:28:27.194Z,17.20
2019-02-23T18:31:07.727Z,18.07
2019-02-23T18:33:49.065Z,17.90
2019-02-23T18:36:29.377Z,17.50
2019-02-23T18:39:10.541Z,17.77
2019-02-23T18:41:51.750Z,18.83
2019-02-23T18:44:33.099Z,16.47
2019-02-23T18:47:13.994Z,18.57
2019-02-23T18:49:54.586Z,17.47
2019-02-23T18:52:35.848Z,18.30
2019-02-23T18:55:16.525Z,18.00
2019-02-23T18:57:57.543Z,18.10
2019-02-23T19:00:38.551Z,17.57
2019-02-23T19:03:19.731Z,17.17
2019-02-23T19:06:00.803Z,17.87
2019-02-23T19:08:41.318Z,20.50
2019-02-23T19:11:22.324Z,18.80
2019-02-23T19:14:03.555Z,20.60
2019-02-23T19:16:44.690Z,18.40
2019-02-23T19:19:25.519Z,17.87
2019-02-23T19:22:06.977Z,19.40
2019-02-23T19:24:47.430Z,20.13
2019-02-23T19:27:28.455Z,17.50
2019-02-23T19:30:09.677Z,17.93
2019-02-23T19:32:50.408Z,18.87
2019-02-23T19:35:32.025Z,20.00
2019-02-23T19:38:13.204Z,16.90
2019-02-23T19:40:54.150Z,18.13
2019-02-23T19:43:35.456Z,18.80
2019-02-23T19:46:16.182Z,20.20
2019-02-23T19:48:56.714Z,20.30
2019-02-23T19:51:37.863Z,18.33
2019-02-23T19:54:18.984Z,17.30
2019-02-23T19:57:00.572Z,17.03
2019-02-23T19:59:41.751Z,16.63
2019-02-23T20:02:22.575Z,17.60
2019-02-23T20:05:03.349Z,15.97
2019-02-23T20:07:44.437Z,15.33
2019-02-23T20:10:25.156Z,17.23
2019-02-23T20:13:05.808Z,16.37
2019-02-23T20:15:46.679Z,16.80
2019-02-23T20:18:27.414Z,15.50
2019-02-23T20:21:08.366Z,16.33
2019-02-23T20:23:48.758Z,16.17
2019-02-23T20:26:29.840Z,15.53
2019-02-23T20:29:10.224Z,16.50
2019-02-23T20:31:51.060Z,13.87
2019-02-23T20:34:31.807Z,14.43
2019-02-23T20:37:12.704Z,16.50
2019-02-23T20:39:54.362Z,15.90
2019-02-23T20:42:35.744Z,14.70
2019-02-23T20:45:16.652Z,15.20
2019-02-23T20:47:57.940Z,14.00
2019-02-23T20:50:40.188Z,13.90
2019-02-23T20:53:20.995Z,14.53
2019-02-23T20:56:02.268Z,14.67
2019-02-23T20:58:42.947Z,13.10
2019-02-23T21:01:24.357Z,13.30
2019-02-23T21:04:04.873Z,13.83
2019-02-23T21:06:45.260Z,14.03
2019-02-23T21:09:26.489Z,12.00
2019-02-23T21:12:07.729Z,13.23
2019-02-23T21:14:48.606Z,13.57
2019-02-23T21:17:29.411Z,12.60
2019-02-23T21:20:10.121Z,12.73
2019-02-23T21:22:51.101Z,12.50
2019-02-23T21:25:31.527Z,11.23
2019-02-23T21:28:12.124Z,11.80
2019-02-23T21:30:52.595Z,12.03
2019-02-23T21:33:33.446Z,14.17
2019-02-23T21:36:14.344Z,13.43
2019-02-23T21:38:57.904Z,13.20
2019-02-23T21:41:38.459Z,14.77
2019-02-23T21:44:19.325Z,16.27
2019-02-23T21:46:59.788Z,15.80
2019-02-23T21:49:40.827Z,15.17
2019-02-23T21:52:22.286Z,16.00
2019-02-23T21:55:02.831Z,16.50
2019-02-23T21:57:43.693Z,17.07
2019-02-23T22:00:24.628Z,15.73
2019-02-23T22:03:07.101Z,15.20
2019-02-23T22:05:48.626Z,14.00
2019-02-23T22:08:29.836Z,15.03
2019-02-23T22:11:10.735Z,14.97
2019-02-23T22:13:51.341Z,14.57
2019-02-23T22:16:32.235Z,12.70
2019-02-23T22:19:12.509Z,13.50
2019-02-23T22:21:53.031Z,15.57
2019-02-23T22:24:33.992Z,15.03
2019-02-23T22:27:15.640Z,14.40
2019-02-23T22:29:57.181Z,14.53
2019-02-23T22:32:37.720Z,14.77
2019-02-23T22:35:18.648Z,12.93
2019-02-23T22:37:59.422Z,12.77
2019-02-23T22:40:40.049Z,14.00
2019-02-23T22:43:20.957Z,12.97
2019-02-23T22:46:01.546Z,13.13
2019-02-23T22:48:42.393Z,16.20
2019-02-23T22:51:23.039Z,14.10
2019-02-23T22:54:04.507Z,12.53
2019-02-23T22:56:45.411Z,13.20
2019-02-23T22:59:26.005Z,13.23
2019-02-23T23:02:07.039Z,14.37
2019-02-23T23:04:48.293Z,14.27
2019-02-23T23:07:28.914Z,14.20
2019-02-23T23:10:09.693Z,13.58
2019-02-23T23:12:50.137Z,13.63
2019-02-23T23:15:30.839Z,13.07
2019-02-23T23:18:11.463Z,12.50
2019-02-23T23:20:52.051Z,12.53
2019-02-23T23:23:32.837Z,13.00
2019-02-23T23:26:13.446Z,13.53
2019-02-23T23:28:54.067Z,12.70
2019-02-23T23:31:35.002Z,12.67
2019-02-23T23:34:15.860Z,12.20
2019-02-23T23:36:56.814Z,12.30
2019-02-23T23:39:37.666Z,12.80
2019-02-23T23:42:18.726Z,12.85
2019-02-23T23:44:59.303Z,13.37
2019-02-23T23:47:40.115Z,13.40
2019-02-23T23:50:20.786Z,13.00
2019-02-23T23:53:01.518Z,12.33
2019-02-23T23:55:42.677Z,12.67
2019-02-23T23:58:24.172Z,12.87
